Time;durP1;ratioP1;P1;durP2;ratioP2;P2;SDS_P1;SDS_P2;PMS_P1;PMS_P2;Temp;Humidity;BMP_temperature;BMP_pressure;BME280_temperature;BME280_humidity;BME280_pressure;Samples;Min_cycle;Max_cycle;Signal;HPM_P1;HPM_P2
2022/10/18 00:00:51;;;;;;;9.80;9.30;;;;;;;5.04;100.00;102389.47;5086913;28;20047;-68
2022/10/18 00:03:17;;;;;;;10.55;9.95;;;;;;;4.84;100.00;102385.41;5075770;28;20028;-69
2022/10/18 00:05:42;;;;;;;10.20;9.70;;;;;;;4.80;100.00;102378.66;5085915;28;20037;-69
2022/10/18 00:08:08;;;;;;;10.57;9.98;;;;;;;4.81;100.00;102388.25;5079731;28;20032;-68
2022/10/18 00:10:33;;;;;;;10.45;9.88;;;;;;;4.88;100.00;102384.31;5084767;28;20124;-68
2022/10/18 00:12:59;;;;;;;11.43;10.75;;;;;;;4.89;100.00;102379.91;5080433;28;20285;-68
2022/10/18 00:15:24;;;;;;;11.02;10.43;;;;;;;5.06;100.00;102379.72;5087608;28;20073;-68
2022/10/18 00:17:50;;;;;;;10.00;9.50;;;;;;;5.21;100.00;102383.19;5085021;28;20089;-69
2022/10/18 00:20:15;;;;;;;10.73;10.13;;;;;;;5.16;100.00;102380.00;5082065;28;20498;-68
2022/10/18 00:22:41;;;;;;;10.27;9.77;;;;;;;5.29;100.00;102380.94;5085937;28;20035;-68
2022/10/18 00:25:08;;;;;;;10.45;9.85;;;;;;;5.20;100.00;102384.13;5085073;28;20027;-68
2022/10/18 00:27:34;;;;;;;10.23;9.70;;;;;;;5.12;100.00;102375.88;5082545;28;20024;-68
2022/10/18 00:30:00;;;;;;;10.52;9.93;;;;;;;5.24;100.00;102370.69;5087300;28;20031;-68
2022/10/18 00:32:26;;;;;;;10.57;9.98;;;;;;;5.25;100.00;102371.53;5084236;28;20119;-68
2022/10/18 00:34:51;;;;;;;10.52;9.93;;;;;;;5.30;100.00;102364.22;5082481;28;20270;-68
2022/10/18 00:37:17;;;;;;;10.80;10.20;;;;;;;5.30;100.00;102363.38;5085384;28;20617;-68
2022/10/18 00:39:43;;;;;;;10.32;9.80;;;;;;;5.23;100.00;102360.28;5083215;28;20043;-68
2022/10/18 00:42:31;;;;;;;10.77;10.18;;;;;;;5.17;100.00;102364.13;5082107;28;20020;-68
2022/10/18 00:45:05;;;;;;;11.00;10.40;;;;;;;5.07;100.00;102365.66;5077875;28;20020;-69
2022/10/18 00:47:33;;;;;;;9.82;9.32;;;;;;;4.95;100.00;102356.69;5080358;28;20030;-68
2022/10/18 00:50:03;;;;;;;10.65;10.05;;;;;;;5.03;100.00;102365.91;5086962;28;20123;-66
2022/10/18 00:52:39;;;;;;;10.27;9.75;;;;;;;4.99;100.00;102357.34;5075615;28;20041;-68
2022/10/18 00:55:06;;;;;;;9.77;9.27;;;;;;;5.06;100.00;102356.03;5105098;28;20066;-68
2022/10/18 00:57:32;;;;;;;10.00;9.50;;;;;;;4.92;100.00;102348.13;5081617;28;20048;-68
2022/10/18 00:59:58;;;;;;;11.20;10.50;;;;;;;4.93;100.00;102349.84;5083396;28;20533;-68
2022/10/18 01:02:24;;;;;;;11.00;10.38;;;;;;;4.87;100.00;102347.59;5081422;28;20027;-67
2022/10/18 01:04:50;;;;;;;10.45;9.85;;;;;;;4.70;100.00;102343.31;5078705;28;20031;-68
2022/10/18 01:07:50;;;;;;;10.75;10.15;;;;;;;4.66;100.00;102342.69;5082801;28;20051;-68
2022/10/18 01:10:34;;;;;;;10.25;9.70;;;;;;;4.68;100.00;102340.81;5085048;28;20028;-68
2022/10/18 01:13:15;;;;;;;10.23;9.70;;;;;;;4.72;100.00;102344.09;5080555;28;20043;-67
2022/10/18 01:16:16;;;;;;;9.90;9.40;;;;;;;4.72;100.00;102352.00;5086163;28;20028;-68
2022/10/18 01:18:54;;;;;;;10.57;9.98;;;;;;;4.74;100.00;102346.63;5086533;28;22171;-68
2022/10/18 01:21:37;;;;;;;11.57;10.88;;;;;;;4.71;100.00;102343.25;5086759;28;20055;-68
2022/10/18 01:24:05;;;;;;;11.73;11.02;;;;;;;4.68;100.00;102340.81;5080140;28;20024;-68
2022/10/18 01:27:08;;;;;;;10.60;10.00;;;;;;;4.64;100.00;102344.56;5086270;28;20069;-67
2022/10/18 01:30:11;;;;;;;11.10;10.48;;;;;;;4.64;100.00;102346.34;5086692;28;20306;-68
2022/10/18 01:32:49;;;;;;;10.27;9.70;;;;;;;4.64;100.00;102341.09;5090324;28;20077;-68
2022/10/18 01:35:22;;;;;;;10.27;9.73;;;;;;;4.61;100.00;102338.63;5085803;28;20052;-68
2022/10/18 01:37:49;;;;;;;10.30;9.80;;;;;;;4.81;100.00;102340.06;5088196;28;20089;-69
2022/10/18 01:40:18;;;;;;;10.75;10.15;;;;;;;4.80;100.00;102341.00;5084210;28;20098;-68
2022/10/18 01:42:47;;;;;;;10.38;9.77;;;;;;;4.61;100.00;102330.75;5084172;28;20032;-68
2022/10/18 01:45:14;;;;;;;9.95;9.45;;;;;;;4.62;100.00;102327.19;5083240;28;20034;-68
2022/10/18 01:47:43;;;;;;;10.30;9.75;;;;;;;4.52;100.00;102324.25;5087445;28;20027;-68
2022/10/18 01:50:08;;;;;;;10.77;10.18;;;;;;;4.54;100.00;102325.00;5105049;28;20565;-68
2022/10/18 01:52:34;;;;;;;11.75;11.05;;;;;;;4.51;100.00;102317.31;5087494;28;20165;-68
2022/10/18 01:55:02;;;;;;;11.57;10.88;;;;;;;4.43;100.00;102316.94;5083803;28;20158;-67
2022/10/18 01:57:41;;;;;;;10.13;9.63;;;;;;;4.40;100.00;102314.47;5089096;28;20016;-68
2022/10/18 02:00:15;;;;;;;10.18;9.68;;;;;;;4.55;100.00;102312.72;5087719;28;20087;-68
2022/10/18 02:02:46;;;;;;;10.07;9.57;;;;;;;4.47;100.00;102309.69;5091064;28;20576;-68
2022/10/18 02:05:21;;;;;;;9.80;9.30;;;;;;;4.52;100.00;102311.13;5091524;28;20028;-68
2022/10/18 02:08:05;;;;;;;10.50;9.90;;;;;;;4.55;100.00;102317.97;5086538;28;20032;-68
2022/10/18 02:11:04;;;;;;;9.40;8.90;;;;;;;4.46;100.00;102308.84;5081496;28;20037;-68
2022/10/18 02:13:35;;;;;;;9.70;9.20;;;;;;;4.41;100.00;102306.53;5080342;28;20036;-68
2022/10/18 02:16:06;;;;;;;10.30;9.70;;;;;;;4.42;100.00;102307.38;5084975;28;20028;-68
2022/10/18 02:18:48;;;;;;;9.82;9.32;;;;;;;4.35;100.00;102308.66;5104777;28;20119;-68
2022/10/18 02:21:18;;;;;;;10.65;10.05;;;;;;;4.33;100.00;102310.50;5084850;28;20047;-68
2022/10/18 02:23:45;;;;;;;9.90;9.40;;;;;;;4.33;100.00;102307.88;5083359;28;20020;-68
2022/10/18 02:26:11;;;;;;;10.18;9.60;;;;;;;4.34;100.00;102304.34;5086412;28;20038;-68
2022/10/18 02:28:37;;;;;;;11.55;10.85;;;;;;;4.41;100.00;102313.56;5079421;28;20047;-68
2022/10/18 02:31:25;;;;;;;10.02;9.52;;;;;;;4.34;100.00;102304.34;5084099;28;20024;-68
2022/10/18 02:33:51;;;;;;;10.50;9.90;;;;;;;4.42;100.00;102302.09;5086422;28;20115;-67
2022/10/18 02:36:31;;;;;;;10.00;9.50;;;;;;;4.68;100.00;102306.63;5087163;28;20032;-68
2022/10/18 02:39:02;;;;;;;10.20;9.65;;;;;;;4.62;100.00;102300.88;5082735;28;20031;-68
2022/10/18 02:41:29;;;;;;;10.13;9.60;;;;;;;4.71;100.00;102292.47;5085461;28;20051;-68
2022/10/18 02:43:55;;;;;;;10.93;10.32;;;;;;;4.57;100.00;102295.94;5084588;28;20017;-67
2022/10/18 02:46:21;;;;;;;9.82;9.32;;;;;;;4.59;100.00;102298.47;5082838;28;20034;-68
2022/10/18 02:48:46;;;;;;;10.88;10.27;;;;;;;4.57;100.00;102301.19;5080389;28;20028;-67
2022/10/18 02:51:12;;;;;;;11.27;10.57;;;;;;;4.62;100.00;102303.53;5084975;28;20538;-67
2022/10/18 02:53:37;;;;;;;10.57;9.98;;;;;;;4.46;100.00;102306.22;5082472;28;20020;-67
2022/10/18 02:56:03;;;;;;;9.90;9.40;;;;;;;4.38;100.00;102300.59;5089043;28;20096;-68
2022/10/18 02:58:28;;;;;;;10.45;9.85;;;;;;;4.47;100.00;102297.41;5087166;28;20538;-68
2022/10/18 03:00:54;;;;;;;10.35;9.75;;;;;;;4.44;100.00;102301.06;5090819;28;20019;-68
2022/10/18 03:03:19;;;;;;;9.60;9.10;;;;;;;4.48;100.00;102299.13;5085178;28;20383;-67
2022/10/18 03:05:48;;;;;;;10.43;9.85;;;;;;;4.28;100.00;102288.94;5082321;28;20028;-67
2022/10/18 03:08:14;;;;;;;10.40;9.82;;;;;;;4.28;100.00;102292.41;5081876;28;20030;-68
2022/10/18 03:10:39;;;;;;;9.85;9.35;;;;;;;4.31;100.00;102294.00;5086529;28;20024;-67
2022/10/18 03:13:05;;;;;;;9.82;9.32;;;;;;;4.32;100.00;102290.44;5081497;28;20020;-66
2022/10/18 03:15:30;;;;;;;9.90;9.40;;;;;;;4.29;100.00;102290.63;5085950;28;20115;-68
2022/10/18 03:17:55;;;;;;;11.55;10.85;;;;;;;4.50;100.00;102288.50;5082144;28;20490;-67
2022/10/18 03:20:22;;;;;;;9.95;9.45;;;;;;;4.58;100.00;102296.78;5080940;28;20024;-68
2022/10/18 03:22:47;;;;;;;10.25;9.70;;;;;;;4.42;100.00;102297.69;5085589;28;20364;-68
2022/10/18 03:25:13;;;;;;;10.45;9.85;;;;;;;4.23;100.00;102291.81;5083423;28;20047;-68
2022/10/18 03:27:38;;;;;;;10.45;9.88;;;;;;;4.37;100.00;102302.38;5067920;28;20055;-68
2022/10/18 03:30:04;;;;;;;10.30;9.70;;;;;;;4.35;100.00;102303.41;5082743;28;20036;-68
2022/10/18 03:32:30;;;;;;;10.32;9.77;;;;;;;4.48;100.00;102296.50;5087008;28;20134;-69
2022/10/18 03:34:55;;;;;;;11.23;10.52;;;;;;;4.41;100.00;102303.91;5085057;28;20073;-68
2022/10/18 03:37:21;;;;;;;10.13;9.63;;;;;;;4.40;100.00;102302.16;5081617;28;20063;-68
2022/10/18 03:39:46;;;;;;;10.45;9.88;;;;;;;4.36;100.00;102302.47;5082587;28;20027;-67
2022/10/18 03:42:12;;;;;;;9.98;9.48;;;;;;;4.35;100.00;102300.78;5082161;28;20031;-67
2022/10/18 03:44:37;;;;;;;10.07;9.57;;;;;;;4.32;100.00;102304.41;5079886;28;20028;-68
2022/10/18 03:47:02;;;;;;;10.95;10.35;;;;;;;4.37;100.00;102299.75;5082856;28;20032;-67
2022/10/18 03:49:28;;;;;;;10.05;9.55;;;;;;;4.36;100.00;102302.47;5082712;28;20048;-68
2022/10/18 03:51:53;;;;;;;11.02;10.43;;;;;;;4.41;100.00;102295.16;5082248;28;20036;-68
2022/10/18 03:54:19;;;;;;;10.40;9.80;;;;;;;4.36;100.00;102297.22;5081374;28;20119;-68
2022/10/18 03:56:44;;;;;;;9.73;9.23;;;;;;;4.29;100.00;102288.84;5086553;28;20024;-68
2022/10/18 03:59:10;;;;;;;10.57;9.98;;;;;;;4.26;100.00;102291.66;5080384;28;20028;-68
2022/10/18 04:01:35;;;;;;;10.52;9.93;;;;;;;4.26;100.00;102291.66;5084776;28;20027;-68
2022/10/18 04:04:01;;;;;;;10.43;9.90;;;;;;;4.24;100.00;102287.41;5087931;28;20207;-68
2022/10/18 04:06:26;;;;;;;10.60;10.00;;;;;;;4.41;100.00;102296.00;5085346;28;20383;-67
2022/10/18 04:08:54;;;;;;;10.73;10.13;;;;;;;4.31;100.00;102288.75;5084010;28;20177;-68
2022/10/18 04:11:19;;;;;;;10.75;10.15;;;;;;;4.39;100.00;102284.72;5080600;28;20121;-67
2022/10/18 04:13:44;;;;;;;10.50;9.90;;;;;;;4.42;100.00;102287.19;5084938;28;20075;-68
2022/10/18 04:16:10;;;;;;;10.68;10.07;;;;;;;4.21;100.00;102271.84;5084588;28;20035;-68
2022/10/18 04:18:35;;;;;;;12.05;11.30;;;;;;;4.26;100.00;102283.78;5077944;28;20024;-68
2022/10/18 04:21:01;;;;;;;11.32;10.65;;;;;;;4.22;100.00;102284.88;5081504;28;20063;-67
2022/10/18 04:23:26;;;;;;;10.95;10.35;;;;;;;4.23;100.00;102285.72;5086544;28;20036;-68
2022/10/18 04:25:52;;;;;;;10.60;10.00;;;;;;;4.27;100.00;102289.88;5081490;28;20110;-68
2022/10/18 04:28:17;;;;;;;11.30;10.60;;;;;;;4.31;100.00;102294.00;5079883;28;20032;-68
2022/10/18 04:30:47;;;;;;;11.65;10.95;;;;;;;4.19;100.00;102281.56;5081487;28;20107;-68
2022/10/18 04:33:13;;;;;;;10.75;10.15;;;;;;;4.22;100.00;102291.94;5080776;28;20021;-68
2022/10/18 04:35:38;;;;;;;11.85;11.15;;;;;;;4.35;100.00;102290.28;5085622;28;20032;-68
2022/10/18 04:38:03;;;;;;;10.63;10.02;;;;;;;4.69;100.00;102289.91;5084183;28;20024;-69
2022/10/18 04:40:29;;;;;;;10.40;9.85;;;;;;;5.10;100.00;102291.78;5079669;28;20115;-68
2022/10/18 04:42:54;;;;;;;9.90;9.40;;;;;;;5.50;100.00;102286.63;5079797;28;20027;-68
2022/10/18 04:45:20;;;;;;;10.57;9.98;;;;;;;5.51;100.00;102276.00;5087103;28;20040;-68
2022/10/18 04:47:45;;;;;;;11.70;11.00;;;;;;;5.79;100.00;102274.19;5083714;28;20039;-69
2022/10/18 04:50:11;;;;;;;10.40;9.80;;;;;;;5.97;100.00;102272.19;5085529;28;20362;-68
2022/10/18 04:52:36;;;;;;;9.20;8.73;;;;;;;6.20;100.00;102276.75;5091616;28;20431;-68
2022/10/18 04:55:02;;;;;;;9.73;9.23;;;;;;;6.03;100.00;102258.59;5089679;28;20031;-69
2022/10/18 04:57:27;;;;;;;9.50;9.00;;;;;;;6.31;100.00;102265.47;5080035;28;20024;-68
2022/10/18 04:59:53;;;;;;;10.32;9.73;;;;;;;7.55;100.00;102262.81;5089098;28;20022;-68
2022/10/18 05:02:18;;;;;;;10.57;9.98;;;;;;;6.96;100.00;102267.97;5080277;28;20109;-66
2022/10/18 05:04:44;;;;;;;10.75;10.15;;;;;;;7.40;100.00;102261.28;5082395;28;20036;-68
2022/10/18 05:07:09;;;;;;;10.23;9.73;;;;;;;6.69;100.00;102257.59;5088692;28;20032;-68
2022/10/18 05:09:35;;;;;;;10.57;10.05;;;;;;;7.70;100.00;102260.84;5086127;28;20028;-68
2022/10/18 05:12:00;;;;;;;9.30;8.90;;;;;;;8.25;100.00;102262.00;5087245;28;20032;-67
2022/10/18 05:14:26;;;;;;;10.38;9.88;;;;;;;9.25;100.00;102262.97;5090894;28;20028;-68
2022/10/18 05:16:51;;;;;;;11.00;10.48;;;;;;;12.33;100.00;102256.47;5088865;28;20031;-68
2022/10/18 05:19:16;;;;;;;10.35;9.85;;;;;;;11.90;100.00;102265.81;5085548;28;20044;-68
2022/10/18 05:21:42;;;;;;;11.05;10.55;;;;;;;13.58;100.00;102263.03;5092042;28;20035;-67
2022/10/18 05:24:10;;;;;;;10.38;9.88;;;;;;;10.96;100.00;102254.72;5093969;28;20024;-68
2022/10/18 05:26:36;;;;;;;10.73;10.23;;;;;;;15.88;100.00;102261.41;5077398;28;20428;-68
2022/10/18 05:29:02;;;;;;;10.30;9.80;;;;;;;14.77;100.00;102255.44;5096520;28;20036;-68
2022/10/18 05:31:27;;;;;;;11.05;10.55;;;;;;;13.78;100.00;102255.72;5096350;28;20084;-68
2022/10/18 05:33:53;;;;;;;10.77;10.27;;;;;;;14.01;100.00;102254.25;5094652;28;20032;-68
2022/10/18 05:36:19;;;;;;;10.32;9.82;;;;;;;14.79;96.50;102248.09;5093975;28;20054;-67
2022/10/18 05:38:47;;;;;;;10.35;9.85;;;;;;;16.50;100.00;102251.78;5092877;28;20028;-68
2022/10/18 05:41:13;;;;;;;10.73;10.23;;;;;;;18.03;84.35;102252.13;5094257;28;20126;-67
2022/10/18 05:43:39;;;;;;;10.07;9.68;;;;;;;15.36;97.72;102248.28;5094728;28;20055;-67
2022/10/18 05:46:07;;;;;;;10.32;9.82;;;;;;;17.47;89.02;102255.03;5093744;28;20122;-68
2022/10/18 05:48:33;;;;;;;11.27;10.77;;;;;;;17.08;79.53;102252.44;5088625;28;20038;-68
2022/10/18 05:50:59;;;;;;;10.52;10.02;;;;;;;15.55;86.29;102245.28;5095025;28;20037;-67
2022/10/18 05:53:25;;;;;;;11.10;10.60;;;;;;;15.10;97.73;102251.03;5093110;28;20032;-67
2022/10/18 05:55:51;;;;;;;11.00;10.50;;;;;;;19.48;68.68;102246.03;5070465;28;20648;-68
2022/10/18 05:58:16;;;;;;;11.25;10.75;;;;;;;21.02;60.14;102249.66;5082555;28;20035;-69
2022/10/18 06:00:42;;;;;;;10.40;9.90;;;;;;;22.58;51.35;102253.72;5084878;28;20065;-68
2022/10/18 06:03:07;;;;;;;10.80;10.30;;;;;;;20.74;53.87;102255.13;5066834;28;20103;-68
2022/10/18 06:05:33;;;;;;;11.13;10.63;;;;;;;21.09;61.76;102255.91;5082463;28;20053;-67
2022/10/18 06:07:58;;;;;;;10.38;9.90;;;;;;;20.97;55.50;102265.59;5087779;28;20036;-68
2022/10/18 06:10:24;;;;;;;10.80;10.30;;;;;;;22.76;47.75;102257.63;5082024;28;20570;-69
2022/10/18 06:12:50;;;;;;;11.30;10.80;;;;;;;20.92;56.40;102254.56;5086866;28;20032;-68
2022/10/18 06:15:15;;;;;;;10.60;10.10;;;;;;;23.11;47.67;102252.72;5082966;28;20467;-67
2022/10/18 06:17:41;;;;;;;10.90;10.40;;;;;;;24.15;43.58;102256.78;5082502;28;20438;-68
2022/10/18 06:20:07;;;;;;;10.70;10.20;;;;;;;21.97;46.76;102253.19;5083493;28;20032;-67
2022/10/18 06:22:33;;;;;;;10.70;10.20;;;;;;;25.17;41.99;102251.72;5084683;28;20026;-68
2022/10/18 06:24:58;;;;;;;10.70;10.20;;;;;;;23.63;42.63;102253.47;5083545;28;20111;-68
2022/10/18 06:27:24;;;;;;;10.50;10.00;;;;;;;25.35;40.87;102254.41;5083068;28;20165;-68
2022/10/18 06:29:49;;;;;;;10.85;10.35;;;;;;;23.51;43.11;102253.34;5088542;28;20119;-67
2022/10/18 06:32:16;;;;;;;10.98;10.48;;;;;;;25.65;41.28;102254.38;5086326;28;20036;-69
2022/10/18 06:34:41;;;;;;;11.15;10.65;;;;;;;26.98;37.57;102242.72;5077423;28;20419;-66
2022/10/18 06:37:07;;;;;;;10.57;10.07;;;;;;;25.24;40.19;102245.13;5080606;28;20024;-69
2022/10/18 06:39:33;;;;;;;10.20;9.80;;;;;;;26.12;38.98;102241.66;5082849;28;20544;-69
2022/10/18 06:41:59;;;;;;;10.65;10.15;;;;;;;26.79;37.85;102245.84;5084805;28;20099;-68
2022/10/18 06:44:24;;;;;;;9.98;9.57;;;;;;;25.40;38.67;102248.25;5086117;28;20036;-68
2022/10/18 06:46:52;;;;;;;10.30;9.90;;;;;;;25.90;37.83;102251.47;5088571;28;20039;-67
2022/10/18 06:49:18;;;;;;;9.90;9.50;;;;;;;25.95;39.10;102239.91;5077999;28;20115;-68
2022/10/18 06:51:44;;;;;;;10.52;10.02;;;;;;;23.54;39.51;102235.81;5086630;28;20491;-68
2022/10/18 06:54:10;;;;;;;10.48;9.98;;;;;;;25.93;41.84;102242.00;5086216;28;20042;-68
2022/10/18 06:56:36;;;;;;;10.10;9.70;;;;;;;25.48;41.14;102234.34;5088325;28;20099;-65
2022/10/18 06:59:02;;;;;;;10.50;10.00;;;;;;;26.39;39.10;102233.06;5091114;28;20059;-69
2022/10/18 07:01:29;;;;;;;10.40;9.90;;;;;;;23.84;44.60;102231.44;5082318;28;20020;-69
2022/10/18 07:03:55;;;;;;;10.07;9.68;;;;;;;25.50;44.05;102227.63;5085965;28;20020;-69
2022/10/18 07:06:22;;;;;;;10.07;9.68;;;;;;;26.18;40.67;102231.72;5082088;28;20034;-68
2022/10/18 07:08:49;;;;;;;10.70;10.20;;;;;;;25.27;41.56;102225.69;5086640;28;20103;-67
2022/10/18 07:11:16;;;;;;;10.50;10.00;;;;;;;25.98;40.70;102225.81;5088720;28;20066;-67
2022/10/18 07:13:42;;;;;;;10.18;9.77;;;;;;;26.17;39.73;102222.75;5082298;28;20050;-68
2022/10/18 07:16:13;;;;;;;10.23;9.82;;;;;;;25.55;42.59;102235.06;5084658;28;20472;-67
2022/10/18 07:18:41;;;;;;;10.27;9.88;;;;;;;26.31;40.28;102220.59;5084261;28;20043;-68
2022/10/18 07:21:11;;;;;;;10.38;9.93;;;;;;;24.83;43.21;102228.78;5084797;28;20434;-68
2022/10/18 07:23:39;;;;;;;10.35;9.95;;;;;;;25.77;40.17;102228.03;5082880;28;20020;-69
2022/10/18 07:26:28;;;;;;;10.40;9.95;;;;;;;26.38;40.37;102215.88;5085789;28;20037;-69
2022/10/18 07:29:12;;;;;;;10.32;9.90;;;;;;;27.35;38.54;102208.81;5090809;28;20039;-68
2022/10/18 07:31:38;;;;;;;10.52;10.02;;;;;;;26.06;40.86;102207.25;5085955;28;20031;-69
2022/10/18 07:34:05;;;;;;;10.43;9.93;;;;;;;25.92;41.90;102207.72;5085225;28;20032;-69
2022/10/18 07:36:30;;;;;;;10.50;10.00;;;;;;;27.39;39.31;102202.59;5085187;28;20054;-69
2022/10/18 07:38:56;;;;;;;10.52;10.02;;;;;;;25.47;41.08;102200.91;5082703;28;20515;-68
2022/10/18 07:41:22;;;;;;;10.48;9.98;;;;;;;27.33;40.86;102200.06;5082293;28;20020;-68
2022/10/18 07:43:49;;;;;;;10.32;9.90;;;;;;;25.94;41.37;102192.84;5081600;28;20020;-68
2022/10/18 07:46:16;;;;;;;10.27;9.88;;;;;;;24.83;44.44;102197.03;5086872;28;20035;-67
2022/10/18 07:48:42;;;;;;;10.13;9.73;;;;;;;25.58;41.23;102193.84;5088752;28;20048;-69
2022/10/18 07:51:08;;;;;;;10.50;10.00;;;;;;;25.03;41.25;102189.44;5081458;28;20140;-69
2022/10/18 07:53:34;;;;;;;10.10;9.70;;;;;;;26.47;41.08;102182.88;5080957;28;20020;-68
2022/10/18 07:56:01;;;;;;;10.43;9.95;;;;;;;24.07;47.38;102187.41;5089941;28;20085;-70
2022/10/18 07:58:27;;;;;;;10.50;10.00;;;;;;;25.18;44.84;102188.19;5087907;28;20031;-69
2022/10/18 08:00:53;;;;;;;10.40;9.93;;;;;;;26.71;40.29;102176.28;5085823;28;20019;-67
2022/10/18 08:03:19;;;;;;;10.70;10.20;;;;;;;29.23;35.53;102175.06;5087304;28;20031;-68
2022/10/18 08:05:51;;;;;;;10.60;10.10;;;;;;;29.51;34.41;102183.00;5082918;28;20052;-68
2022/10/18 08:08:17;;;;;;;10.27;9.88;;;;;;;28.81;35.06;102179.28;5084433;28;20395;-67
2022/10/18 08:10:42;;;;;;;10.10;9.70;;;;;;;27.66;35.83;102170.06;5083250;28;20028;-68
2022/10/18 08:13:08;;;;;;;10.23;9.82;;;;;;;27.63;36.26;102165.13;5082846;28;20020;-68
2022/10/18 08:15:33;;;;;;;10.55;10.05;;;;;;;29.87;33.42;102164.91;5083107;28;20039;-67
2022/10/18 08:17:59;;;;;;;10.60;10.10;;;;;;;27.37;34.14;102157.59;5082724;28;20020;-69
2022/10/18 08:20:24;;;;;;;10.68;10.18;;;;;;;26.64;34.97;102140.19;5084012;28;20055;-68
2022/10/18 08:22:50;;;;;;;10.77;10.27;;;;;;;29.20;33.12;102149.09;5085347;28;20032;-68
2022/10/18 08:25:16;;;;;;;10.82;10.32;;;;;;;27.12;35.11;102150.66;5083801;28;20131;-68
2022/10/18 08:27:41;;;;;;;11.32;10.82;;;;;;;27.82;33.87;102138.44;5081387;28;20058;-72
2022/10/18 08:30:08;;;;;;;10.73;10.23;;;;;;;27.60;34.16;102137.53;5079127;28;20468;-69
2022/10/18 08:32:34;;;;;;;10.23;9.82;;;;;;;27.90;34.20;102139.91;5087797;28;20070;-70
2022/10/18 08:34:59;;;;;;;10.48;9.98;;;;;;;26.85;35.25;102139.50;5082918;28;20490;-70
2022/10/18 08:37:25;;;;;;;10.20;9.80;;;;;;;27.29;34.64;102138.94;5087505;28;20028;-70
2022/10/18 08:39:50;;;;;;;10.23;9.82;;;;;;;27.26;35.09;102126.66;5083364;28;20368;-71
2022/10/18 08:42:43;;;;;;;10.70;10.20;;;;;;;27.22;33.38;102118.13;5083258;28;20035;-70
2022/10/18 08:45:11;;;;;;;10.15;9.75;;;;;;;26.88;34.80;102124.56;5083074;28;20530;-70
2022/10/18 08:47:47;;;;;;;10.20;9.80;;;;;;;26.57;35.16;102115.84;5090717;28;20032;-69
2022/10/18 08:50:17;;;;;;;10.50;10.00;;;;;;;26.69;34.95;102118.53;5085220;28;20052;-70
2022/10/18 08:52:58;;;;;;;10.70;10.20;;;;;;;25.97;35.73;102115.38;5084731;28;20032;-69
2022/10/18 08:55:58;;;;;;;10.20;9.80;;;;;;;26.05;36.02;102115.00;5089303;28;20120;-70
2022/10/18 08:58:26;;;;;;;10.70;10.20;;;;;;;26.59;35.22;102116.44;5061557;28;20043;-70
2022/10/18 09:01:12;;;;;;;10.20;9.80;;;;;;;25.02;37.26;102121.75;5085457;28;20040;-70
2022/10/18 09:04:19;;;;;;;10.85;10.35;;;;;;;25.91;36.75;102106.28;5084764;28;20020;-70
2022/10/18 09:07:12;;;;;;;10.43;9.93;;;;;;;25.71;36.39;102105.81;5047756;28;20037;-71
2022/10/18 09:09:58;;;;;;;10.10;9.70;;;;;;;26.12;35.06;102089.34;5043792;28;20029;-71
2022/10/18 09:12:48;;;;;;;10.63;10.13;;;;;;;27.16;34.43;102099.22;5069623;28;20121;-70
2022/10/18 09:15:32;;;;;;;10.50;10.00;;;;;;;25.89;36.17;102082.06;5085484;28;20028;-71
2022/10/18 09:18:35;;;;;;;11.65;11.15;;;;;;;24.06;37.99;102081.91;5079600;28;20098;-71
2022/10/18 09:21:11;;;;;;;10.57;10.07;;;;;;;22.33;41.11;102077.84;5080568;28;20085;-70
2022/10/18 09:23:42;;;;;;;10.43;9.93;;;;;;;22.43;40.66;102076.56;5085186;28;20020;-70
2022/10/18 09:26:20;;;;;;;10.88;10.38;;;;;;;21.95;40.38;102069.63;5078259;28;20028;-69
2022/10/18 09:28:53;;;;;;;11.00;10.50;;;;;;;21.08;41.82;102076.16;5085499;28;20036;-67
2022/10/18 09:31:23;;;;;;;11.57;11.07;;;;;;;20.86;42.34;102064.72;5085168;28;20023;-68
2022/10/18 09:34:13;;;;;;;10.70;10.20;;;;;;;20.87;42.98;102057.44;5085151;28;20059;-68
2022/10/18 09:36:38;;;;;;;11.93;11.32;;;;;;;20.68;44.62;102059.88;5085880;28;20483;-69
2022/10/18 09:39:18;;;;;;;11.20;10.70;;;;;;;20.44;43.97;102052.38;5090005;28;20043;-68
2022/10/18 09:41:53;;;;;;;11.15;10.65;;;;;;;20.44;44.44;102046.97;5085465;28;20036;-69
2022/10/18 09:44:24;;;;;;;12.00;11.40;;;;;;;20.25;45.62;102047.69;5089012;28;20020;-69
2022/10/18 09:47:01;;;;;;;10.68;10.18;;;;;;;20.06;46.01;102046.59;5087009;28;20122;-67
2022/10/18 09:49:44;;;;;;;10.85;10.35;;;;;;;20.00;44.67;102034.75;5083542;28;20044;-69
2022/10/18 09:52:18;;;;;;;11.15;10.65;;;;;;;20.41;45.71;102039.25;5085320;28;20028;-70
2022/10/18 09:54:59;;;;;;;10.90;10.40;;;;;;;20.17;45.97;102029.84;5086543;28;20089;-69
2022/10/18 09:57:49;;;;;;;10.60;10.10;;;;;;;20.08;46.84;102022.97;5086468;28;20031;-69
2022/10/18 10:00:21;;;;;;;10.88;10.38;;;;;;;20.03;45.89;102028.94;5084277;28;20031;-68
2022/10/18 10:02:48;;;;;;;10.70;10.20;;;;;;;20.28;46.20;102029.28;5087204;28;20062;-67
2022/10/18 10:05:14;;;;;;;11.68;11.07;;;;;;;19.72;46.14;102028.59;5090076;28;20066;-70
2022/10/18 10:07:46;;;;;;;10.75;10.25;;;;;;;19.92;47.51;102021.47;5090044;28;20085;-71
2022/10/18 10:10:20;;;;;;;11.23;10.73;;;;;;;20.06;47.73;102023.19;5092168;28;20066;-68
2022/10/18 10:12:46;;;;;;;11.10;10.60;;;;;;;19.63;46.80;102014.47;5084954;28;20032;-68
2022/10/18 10:15:25;;;;;;;10.85;10.35;;;;;;;19.71;47.11;102006.22;5087472;28;20035;-68
2022/10/18 10:18:17;;;;;;;10.82;10.32;;;;;;;19.96;47.22;102001.16;5084644;28;20038;-69
2022/10/18 10:20:51;;;;;;;11.00;10.50;;;;;;;19.51;48.06;102000.69;5102324;28;20058;-68
2022/10/18 10:23:19;;;;;;;11.30;10.80;;;;;;;19.95;49.44;101991.41;5080303;28;20027;-68
2022/10/18 10:25:50;;;;;;;12.38;11.77;;;;;;;19.76;48.50;101986.78;5084768;28;20036;-68
2022/10/18 10:28:20;;;;;;;10.50;10.00;;;;;;;19.73;47.23;101979.94;5084047;28;20424;-68
2022/10/18 10:30:46;;;;;;;12.18;11.57;;;;;;;20.12;48.56;101984.66;5084346;28;20028;-69
2022/10/18 10:33:37;;;;;;;10.77;10.27;;;;;;;19.77;48.96;101973.13;5084274;28;20036;-69
2022/10/18 10:36:14;;;;;;;11.10;10.60;;;;;;;19.88;50.65;101969.00;5085142;28;20487;-68
2022/10/18 10:38:40;;;;;;;10.65;10.15;;;;;;;20.03;51.30;101958.09;5085902;28;20028;-68
2022/10/18 10:41:18;;;;;;;10.98;10.48;;;;;;;19.90;49.84;101955.34;5087614;28;20023;-67
2022/10/18 10:43:44;;;;;;;10.30;9.80;;;;;;;20.08;49.35;101964.53;5084249;28;20330;-70
2022/10/18 10:46:19;;;;;;;10.43;9.93;;;;;;;19.97;48.92;101958.88;5083489;28;20028;-69
2022/10/18 10:48:55;;;;;;;;;;;;;;;20.10;46.92;101937.38;5082601;28;20151;-69
2022/10/18 10:51:36;;;;;;;10.60;10.10;;;;;;;20.28;46.21;101937.66;5085474;28;19922;-69
2022/10/18 10:54:03;;;;;;;11.88;11.27;;;;;;;20.25;45.11;101921.88;5087024;28;20056;-68
2022/10/18 10:56:32;;;;;;;10.90;10.40;;;;;;;20.19;47.89;101929.94;5082653;28;20036;-68
2022/10/18 10:59:07;;;;;;;10.85;10.35;;;;;;;19.96;46.78;101917.66;5082882;28;20114;-68
2022/10/18 11:01:32;;;;;;;10.85;10.35;;;;;;;20.50;46.62;101914.06;5079833;28;20119;-70
2022/10/18 11:04:01;;;;;;;10.48;9.98;;;;;;;20.68;46.52;101911.56;5083130;28;20099;-69
2022/10/18 11:06:41;;;;;;;11.15;10.65;;;;;;;20.59;45.09;101896.66;5083399;28;20051;-68
2022/10/18 11:09:46;;;;;;;10.90;10.40;;;;;;;20.54;42.39;101891.03;5084461;28;20364;-68
2022/10/18 11:12:21;;;;;;;11.75;11.15;;;;;;;20.37;43.85;101900.56;5102260;27;20047;-67
2022/10/18 11:14:56;;;;;;;10.27;9.77;;;;;;;20.54;44.38;101896.44;5071258;28;20024;-69
2022/10/18 11:17:31;;;;;;;11.20;10.70;;;;;;;20.51;43.96;101882.56;5081386;28;20028;-68
2022/10/18 11:20:22;;;;;;;10.32;9.82;;;;;;;20.45;43.55;101880.69;5088072;28;20027;-69
2022/10/18 11:22:50;;;;;;;10.55;10.05;;;;;;;20.50;42.41;101878.19;5085306;28;20020;-69
2022/10/18 11:25:16;;;;;;;11.82;11.23;;;;;;;20.51;42.95;101869.06;5085798;28;20035;-68
2022/10/18 11:27:55;;;;;;;10.98;10.48;;;;;;;20.44;40.59;101869.06;5086114;28;20036;-67